Time;durP1;ratioP1;P1;durP2;ratioP2;P2;SDS_P1;SDS_P2;PMS_P1;PMS_P2;Temp;Humidity;BMP_temperature;BMP_pressure;BME280_temperature;BME280_humidity;BME280_pressure;Samples;Min_cycle;Max_cycle;Signal;HPM_P1;HPM_P2
2023/03/16 00:00:35;;;;;;;;;;;17.20;63.00;;;;;;5039904;28;848;-72
2023/03/16 00:03:01;;;;;;;;;;;17.20;63.00;;;;;;5042026;28;1382;-72
2023/03/16 00:05:26;;;;;;;;;;;17.20;63.00;;;;;;5044252;28;911;-71
2023/03/16 00:07:52;;;;;;;;;;;17.20;63.00;;;;;;5039738;28;891;-71
2023/03/16 00:10:17;;;;;;;;;;;17.20;63.00;;;;;;5047052;28;1285;-71
2023/03/16 00:12:43;;;;;;;;;;;17.20;63.00;;;;;;5038619;28;1386;-71
2023/03/16 00:15:10;;;;;;;;;;;17.20;63.00;;;;;;5040105;28;1946;-72
2023/03/16 00:17:35;;;;;;;;;;;17.20;63.80;;;;;;5042996;28;829;-72
2023/03/16 00:20:05;;;;;;;;;;;17.20;63.00;;;;;;5042686;28;878;-72
2023/03/16 00:22:30;;;;;;;;;;;17.20;63.00;;;;;;5043271;28;1248;-72
2023/03/16 00:24:56;;;;;;;;;;;17.20;63.10;;;;;;5041689;28;1190;-73
2023/03/16 00:27:22;;;;;;;;;;;17.20;63.00;;;;;;5040873;28;1324;-72
2023/03/16 00:29:48;;;;;;;;;;;17.20;63.00;;;;;;5042600;28;1207;-72
2023/03/16 00:32:17;;;;;;;;;;;17.20;63.00;;;;;;5042917;28;1357;-71
2023/03/16 00:34:45;;;;;;;;;;;17.10;63.00;;;;;;5045393;28;1902;-71
2023/03/16 00:37:14;;;;;;;;;;;17.10;63.00;;;;;;5044739;28;1324;-71
2023/03/16 00:39:42;;;;;;;;;;;17.20;63.00;;;;;;5045156;28;1210;-70
2023/03/16 00:42:09;;;;;;;;;;;17.10;63.00;;;;;;5044019;28;1291;-70
2023/03/16 00:44:35;;;;;;;;;;;17.10;63.00;;;;;;5043586;28;1340;-73
2023/03/16 00:47:00;;;;;;;;;;;17.10;63.00;;;;;;5041269;28;847;-71
2023/03/16 00:49:26;;;;;;;;;;;17.10;63.00;;;;;;5039572;28;891;-71
2023/03/16 00:51:51;;;;;;;;;;;17.20;63.00;;;;;;5044984;28;824;-70
2023/03/16 00:54:17;;;;;;;;;;;17.10;63.00;;;;;;5037779;28;1967;-71
2023/03/16 00:56:42;;;;;;;;;;;17.10;63.00;;;;;;5039272;28;800;-71
2023/03/16 00:59:08;;;;;;;;;;;17.10;63.00;;;;;;5038013;28;1236;-71
2023/03/16 01:01:33;;;;;;;;;;;17.20;63.10;;;;;;5039555;28;869;-70
2023/03/16 01:03:59;;;;;;;;;;;17.10;63.00;;;;;;5037100;28;1272;-71
2023/03/16 01:06:24;;;;;;;;;;;17.10;63.00;;;;;;5032851;28;1489;-70
2023/03/16 01:08:51;;;;;;;;;;;17.10;63.00;;;;;;5038031;28;1172;-70
2023/03/16 01:11:17;;;;;;;;;;;17.10;63.00;;;;;;5040214;28;824;-70
2023/03/16 01:13:43;;;;;;;;;;;17.10;63.00;;;;;;5046069;28;1906;-71
2023/03/16 01:16:08;;;;;;;;;;;17.10;63.00;;;;;;5042965;28;1001;-71
2023/03/16 01:18:34;;;;;;;;;;;17.10;63.00;;;;;;5041499;28;864;-71
2023/03/16 01:21:03;;;;;;;;;;;17.10;63.00;;;;;;5040053;28;882;-73
2023/03/16 01:23:29;;;;;;;;;;;17.10;63.00;;;;;;5042196;28;1244;-73
2023/03/16 01:25:54;;;;;;;;;;;17.10;63.00;;;;;;5045623;28;1194;-73
2023/03/16 01:28:23;;;;;;;;;;;17.10;63.00;;;;;;5041018;28;838;-73
2023/03/16 01:30:52;;;;;;;;;;;17.10;63.10;;;;;;5042132;28;840;-73
2023/03/16 01:33:17;;;;;;;;;;;17.10;63.10;;;;;;5047980;28;1265;-74
2023/03/16 01:35:50;;;;;;;;;;;17.10;63.10;;;;;;5044834;28;1895;-73
2023/03/16 01:38:15;;;;;;;;;;;17.10;63.10;;;;;;5040049;28;1078;-73
2023/03/16 01:40:41;;;;;;;;;;;17.10;63.10;;;;;;5043429;28;1044;-73
2023/03/16 01:43:06;;;;;;;;;;;17.10;63.10;;;;;;5042718;28;1323;-73
2023/03/16 01:45:51;;;;;;;;;;;17.10;63.10;;;;;;5037899;28;892;-73
2023/03/16 01:48:17;;;;;;;;;;;17.10;63.10;;;;;;5044657;28;851;-73
2023/03/16 01:50:43;;;;;;;;;;;17.10;63.10;;;;;;5040088;28;953;-73
2023/03/16 01:53:08;;;;;;;;;;;17.10;63.10;;;;;;5040839;28;1348;-73
2023/03/16 01:55:34;;;;;;;;;;;17.10;63.10;;;;;;5023979;28;1965;-73
2023/03/16 01:58:00;;;;;;;;;;;17.10;63.10;;;;;;5046703;28;903;-73
2023/03/16 02:00:30;;;;;;;;;;;17.10;63.10;;;;;;5039605;28;777;-73
2023/03/16 02:02:57;;;;;;;;;;;17.10;63.10;;;;;;5040201;28;1338;-73
2023/03/16 02:05:28;;;;;;;;;;;17.10;63.10;;;;;;5041789;28;1019;-73
2023/03/16 02:07:57;;;;;;;;;;;17.10;63.10;;;;;;5041228;28;1085;-73
2023/03/16 02:10:23;;;;;;;;;;;17.10;63.10;;;;;;5038830;28;883;-74
2023/03/16 02:12:48;;;;;;;;;;;17.10;63.20;;;;;;5039508;28;1304;-73
2023/03/16 02:15:14;;;;;;;;;;;17.10;63.20;;;;;;5040015;28;1977;-73
2023/03/16 02:17:40;;;;;;;;;;;17.10;63.10;;;;;;5026572;28;1444;-73
2023/03/16 02:20:12;;;;;;;;;;;17.10;63.10;;;;;;5038307;28;851;-73
2023/03/16 02:22:38;;;;;;;;;;;17.10;63.10;;;;;;5035871;28;1259;-73
2023/03/16 02:25:04;;;;;;;;;;;17.00;63.10;;;;;;5044614;28;1003;-72
2023/03/16 02:27:29;;;;;;;;;;;17.10;63.10;;;;;;5053999;28;984;-71
2023/03/16 02:29:56;;;;;;;;;;;17.10;63.10;;;;;;5043620;28;1022;-72
2023/03/16 02:32:22;;;;;;;;;;;17.10;63.10;;;;;;5023082;28;1256;-71
2023/03/16 02:34:47;;;;;;;;;;;17.00;63.10;;;;;;5044115;28;1948;-71
2023/03/16 02:37:13;;;;;;;;;;;17.10;63.20;;;;;;5037915;28;1104;-71
2023/03/16 02:39:38;;;;;;;;;;;17.00;63.10;;;;;;5029236;28;1526;-72
2023/03/16 02:42:03;;;;;;;;;;;17.10;63.20;;;;;;5038147;28;840;-72
2023/03/16 02:44:33;;;;;;;;;;;17.00;63.10;;;;;;5032693;28;1362;-71
2023/03/16 02:47:00;;;;;;;;;;;17.00;63.10;;;;;;5044442;28;890;-72
2023/03/16 02:49:33;;;;;;;;;;;17.10;63.20;;;;;;5043425;28;1035;-71
2023/03/16 02:51:58;;;;;;;;;;;17.00;63.10;;;;;;5037634;28;860;-71
2023/03/16 02:54:24;;;;;;;;;;;17.00;63.10;;;;;;5035731;28;1961;-71
2023/03/16 02:56:50;;;;;;;;;;;17.00;63.10;;;;;;5037199;28;1214;-71
2023/03/16 02:59:15;;;;;;;;;;;17.10;63.20;;;;;;5037622;28;836;-71
2023/03/16 03:01:41;;;;;;;;;;;17.00;63.10;;;;;;5038766;28;915;-71
2023/03/16 03:04:06;;;;;;;;;;;17.00;63.20;;;;;;5041485;28;1224;-71
2023/03/16 03:06:32;;;;;;;;;;;17.00;63.20;;;;;;5037655;28;867;-71
2023/03/16 03:08:58;;;;;;;;;;;17.00;63.10;;;;;;5037285;28;836;-72
2023/03/16 03:11:23;;;;;;;;;;;17.00;63.20;;;;;;5023159;28;1249;-72
2023/03/16 03:13:49;;;;;;;;;;;17.10;63.20;;;;;;5035849;28;1926;-71
2023/03/16 03:16:14;;;;;;;;;;;17.00;63.10;;;;;;5024165;28;1155;-71
2023/03/16 03:18:40;;;;;;;;;;;17.00;63.10;;;;;;5035494;28;860;-72
2023/03/16 03:21:05;;;;;;;;;;;17.00;63.10;;;;;;5039788;28;876;-71
2023/03/16 03:23:31;;;;;;;;;;;17.00;63.10;;;;;;5038737;28;1302;-71
2023/03/16 03:25:57;;;;;;;;;;;17.00;63.20;;;;;;5036413;28;946;-71
2023/03/16 03:28:22;;;;;;;;;;;17.00;63.20;;;;;;5042090;28;824;-72
2023/03/16 03:30:48;;;;;;;;;;;17.00;63.20;;;;;;5041074;28;1026;-71
2023/03/16 03:33:13;;;;;;;;;;;17.00;63.20;;;;;;5040694;28;1306;-71
2023/03/16 03:35:40;;;;;;;;;;;17.00;63.20;;;;;;5046818;28;1914;-71
2023/03/16 03:38:07;;;;;;;;;;;17.00;63.20;;;;;;5042051;28;1508;-71
2023/03/16 03:40:32;;;;;;;;;;;17.00;63.20;;;;;;5040329;28;1358;-71
2023/03/16 03:42:58;;;;;;;;;;;17.00;63.20;;;;;;5043587;28;1384;-71
2023/03/16 03:45:23;;;;;;;;;;;17.00;63.20;;;;;;5041397;28;1195;-71
2023/03/16 03:47:49;;;;;;;;;;;17.00;63.20;;;;;;5040301;28;852;-71
2023/03/16 03:50:15;;;;;;;;;;;17.00;63.20;;;;;;5037665;28;1247;-71
2023/03/16 03:52:40;;;;;;;;;;;17.00;63.20;;;;;;5037829;28;1302;-71
2023/03/16 03:55:06;;;;;;;;;;;17.00;63.20;;;;;;5040620;28;1965;-71
2023/03/16 03:57:31;;;;;;;;;;;17.00;63.20;;;;;;5038023;28;934;-71
2023/03/16 03:59:57;;;;;;;;;;;17.00;63.20;;;;;;5040589;28;1070;-70
2023/03/16 04:02:22;;;;;;;;;;;17.00;63.20;;;;;;5041105;28;1284;-70
2023/03/16 04:04:48;;;;;;;;;;;17.00;63.20;;;;;;5037862;28;1254;-72
2023/03/16 04:07:13;;;;;;;;;;;17.00;63.20;;;;;;5037233;28;868;-72
2023/03/16 04:09:40;;;;;;;;;;;17.00;63.20;;;;;;5038893;28;942;-72
2023/03/16 04:12:06;;;;;;;;;;;17.00;63.20;;;;;;5042385;28;807;-71
2023/03/16 04:14:31;;;;;;;;;;;17.00;63.20;;;;;;5046951;28;1973;-72
2023/03/16 04:16:57;;;;;;;;;;;17.00;63.20;;;;;;5045529;28;835;-72
2023/03/16 04:19:22;;;;;;;;;;;17.00;63.20;;;;;;5041951;28;1500;-71
2023/03/16 04:21:48;;;;;;;;;;;17.00;63.20;;;;;;5040770;28;864;-72
2023/03/16 04:24:14;;;;;;;;;;;17.00;63.20;;;;;;5039424;28;1342;-72
2023/03/16 04:26:40;;;;;;;;;;;17.00;63.20;;;;;;5040887;28;907;-72
2023/03/16 04:29:05;;;;;;;;;;;17.00;63.20;;;;;;5038384;28;842;-71
2023/03/16 04:31:30;;;;;;;;;;;17.00;63.20;;;;;;5041860;28;926;-72
2023/03/16 04:33:56;;;;;;;;;;;17.00;63.20;;;;;;5041608;28;1898;-72
2023/03/16 04:36:24;;;;;;;;;;;17.00;63.20;;;;;;5042010;28;792;-72
2023/03/16 04:38:50;;;;;;;;;;;17.00;63.20;;;;;;5036178;28;1607;-72
2023/03/16 04:41:16;;;;;;;;;;;17.00;63.20;;;;;;5037553;28;819;-72
2023/03/16 04:43:42;;;;;;;;;;;17.00;63.20;;;;;;5024659;28;1435;-72
2023/03/16 04:46:07;;;;;;;;;;;17.00;63.30;;;;;;5040051;28;807;-72
2023/03/16 04:48:33;;;;;;;;;;;17.00;63.20;;;;;;5040567;28;873;-72
2023/03/16 04:50:58;;;;;;;;;;;17.00;63.30;;;;;;5038018;28;1349;-72
2023/03/16 04:53:24;;;;;;;;;;;16.90;63.20;;;;;;5039517;28;1262;-72
2023/03/16 04:55:50;;;;;;;;;;;17.00;63.30;;;;;;5035261;28;1911;-72
2023/03/16 04:58:15;;;;;;;;;;;17.00;63.30;;;;;;5037696;28;931;-72
2023/03/16 05:00:41;;;;;;;;;;;16.90;63.30;;;;;;5040978;28;930;-72
2023/03/16 05:03:07;;;;;;;;;;;16.90;63.30;;;;;;5040267;28;1264;-72
2023/03/16 05:05:33;;;;;;;;;;;16.90;63.20;;;;;;5040637;28;911;-72
2023/03/16 05:08:00;;;;;;;;;;;17.00;64.10;;;;;;5039538;28;812;-72
2023/03/16 05:10:26;;;;;;;;;;;17.00;63.20;;;;;;5040326;28;938;-71
2023/03/16 05:12:51;;;;;;;;;;;17.00;63.20;;;;;;5035242;28;1359;-73
2023/03/16 05:15:16;;;;;;;;;;;17.00;63.10;;;;;;5039944;28;1914;-70
2023/03/16 05:17:42;;;;;;;;;;;17.10;63.10;;;;;;5036744;28;823;-70
2023/03/16 05:20:11;;;;;;;;;;;17.10;62.90;;;;;;5036771;28;887;-70
2023/03/16 05:22:40;;;;;;;;;;;17.10;62.80;;;;;;5056046;28;1321;-70
2023/03/16 05:25:06;;;;;;;;;;;17.10;62.70;;;;;;5039540;28;881;-70
2023/03/16 05:27:33;;;;;;;;;;;17.20;62.50;;;;;;5036819;28;781;-70
2023/03/16 05:30:00;;;;;;;;;;;17.20;62.40;;;;;;5039367;28;918;-70
2023/03/16 05:32:25;;;;;;;;;;;17.20;62.30;;;;;;5035049;28;1367;-70
2023/03/16 05:34:52;;;;;;;;;;;17.30;62.10;;;;;;5037931;28;1895;-70
2023/03/16 05:37:18;;;;;;;;;;;17.30;62.00;;;;;;5036592;28;1395;-70
2023/03/16 05:39:43;;;;;;;;;;;17.40;62.00;;;;;;5039385;28;944;-70
2023/03/16 05:42:09;;;;;;;;;;;17.40;61.80;;;;;;5039990;28;1057;-70
2023/03/16 05:44:34;;;;;;;;;;;17.40;61.70;;;;;;5043538;28;1245;-70
2023/03/16 05:46:59;;;;;;;;;;;17.40;61.60;;;;;;5038356;28;822;-70
2023/03/16 05:49:25;;;;;;;;;;;17.50;61.60;;;;;;5040048;28;892;-70
2023/03/16 05:51:50;;;;;;;;;;;17.50;61.60;;;;;;5040714;28;1067;-70
2023/03/16 05:54:16;;;;;;;;;;;17.40;61.40;;;;;;5036743;28;1945;-70
2023/03/16 05:56:41;;;;;;;;;;;17.50;61.40;;;;;;5042331;28;1307;-70
2023/03/16 05:59:07;;;;;;;;;;;17.50;61.40;;;;;;5037738;28;1042;-71
2023/03/16 06:01:36;;;;;;;;;;;17.50;61.30;;;;;;5038344;28;892;-71
2023/03/16 06:04:02;;;;;;;;;;;17.50;61.30;;;;;;5036131;28;1349;-70
2023/03/16 06:06:27;;;;;;;;;;;17.60;61.30;;;;;;5039447;28;916;-71
2023/03/16 06:08:53;;;;;;;;;;;17.60;61.20;;;;;;5042912;28;1235;-70
2023/03/16 06:11:18;;;;;;;;;;;17.50;61.20;;;;;;5040124;28;1179;-71
2023/03/16 06:13:44;;;;;;;;;;;17.50;61.10;;;;;;5037087;28;2119;-70
2023/03/16 06:16:12;;;;;;;;;;;17.50;61.10;;;;;;5034887;28;1747;-71
2023/03/16 06:18:38;;;;;;;;;;;17.50;61.10;;;;;;5037832;28;1249;-71
2023/03/16 06:21:04;;;;;;;;;;;17.50;61.10;;;;;;5039214;28;1857;-68
2023/03/16 06:23:29;;;;;;;;;;;17.60;61.20;;;;;;5037187;28;1911;-76
2023/03/16 06:25:55;;;;;;;;;;;17.60;61.20;;;;;;5037294;28;1472;-67
2023/03/16 06:28:21;;;;;;;;;;;17.50;61.10;;;;;;5025173;28;1239;-68
2023/03/16 06:30:46;;;;;;;;;;;17.50;61.10;;;;;;5039794;28;1950;-69
2023/03/16 06:33:12;;;;;;;;;;;17.50;61.10;;;;;;5039095;28;1320;-67
2023/03/16 06:35:37;;;;;;;;;;;17.50;61.20;;;;;;5044202;28;1902;-68
2023/03/16 06:38:02;;;;;;;;;;;17.50;61.20;;;;;;5035952;28;1219;-68
2023/03/16 06:40:28;;;;;;;;;;;17.60;61.40;;;;;;5039289;28;1346;-66
2023/03/16 06:42:54;;;;;;;;;;;17.50;61.20;;;;;;5038508;28;1240;-68
2023/03/16 06:45:24;;;;;;;;;;;17.50;61.20;;;;;;5040734;28;1038;-67
2023/03/16 06:47:49;;;;;;;;;;;17.60;61.20;;;;;;5041291;28;843;-68
2023/03/16 06:50:15;;;;;;;;;;;17.60;61.30;;;;;;5025392;28;1731;-67
2023/03/16 06:52:40;;;;;;;;;;;17.50;61.20;;;;;;5044870;28;1568;-66
2023/03/16 06:55:06;;;;;;;;;;;17.50;61.20;;;;;;5039072;28;1906;-69
2023/03/16 06:57:32;;;;;;;;;;;17.50;61.20;;;;;;5040198;28;797;-66
2023/03/16 06:59:57;;;;;;;;;;;17.50;61.30;;;;;;5045651;28;833;-66
2023/03/16 07:02:23;;;;;;;;;;;17.50;61.30;;;;;;5036527;28;1374;-66
2023/03/16 07:04:49;;;;;;;;;;;17.50;61.30;;;;;;5038148;28;907;-67
2023/03/16 07:07:15;;;;;;;;;;;17.50;61.40;;;;;;5041335;28;1318;-67
2023/03/16 07:09:41;;;;;;;;;;;17.50;61.40;;;;;;5044169;28;895;-66
2023/03/16 07:12:07;;;;;;;;;;;17.50;61.40;;;;;;5042801;28;1077;-67
2023/03/16 07:14:32;;;;;;;;;;;17.50;61.40;;;;;;5044843;28;1971;-66
2023/03/16 07:16:58;;;;;;;;;;;17.50;61.40;;;;;;5042913;28;1045;-67
2023/03/16 07:19:23;;;;;;;;;;;17.50;61.40;;;;;;5041190;28;949;-66
2023/03/16 07:21:49;;;;;;;;;;;17.50;61.40;;;;;;5049727;28;1200;-66
2023/03/16 07:24:14;;;;;;;;;;;17.50;61.50;;;;;;5040092;28;1326;-66
2023/03/16 07:26:40;;;;;;;;;;;17.40;61.40;;;;;;5045604;28;832;-67
2023/03/16 07:29:05;;;;;;;;;;;17.40;61.40;;;;;;5042324;28;836;-67
2023/03/16 07:31:31;;;;;;;;;;;17.40;61.50;;;;;;5042493;28;856;-66
2023/03/16 07:33:57;;;;;;;;;;;17.50;61.60;;;;;;5041458;28;1906;-68
2023/03/16 07:36:23;;;;;;;;;;;17.40;61.60;;;;;;5041514;28;888;-67
2023/03/16 07:38:48;;;;;;;;;;;17.40;61.50;;;;;;5041581;28;1021;-67
2023/03/16 07:41:13;;;;;;;;;;;17.50;61.60;;;;;;5045360;28;785;-69
2023/03/16 07:43:39;;;;;;;;;;;17.50;61.60;;;;;;5044694;28;1279;-68
2023/03/16 07:46:05;;;;;;;;;;;17.40;61.60;;;;;;5037465;28;861;-67
2023/03/16 07:48:31;;;;;;;;;;;17.40;61.60;;;;;;5041949;28;804;-68
2023/03/16 07:50:56;;;;;;;;;;;17.40;61.60;;;;;;5043718;28;804;-67
2023/03/16 07:53:22;;;;;;;;;;;17.40;61.60;;;;;;5040379;28;1294;-68
2023/03/16 07:55:47;;;;;;;;;;;17.40;61.60;;;;;;5043341;28;1961;-69
2023/03/16 07:58:13;;;;;;;;;;;17.40;61.70;;;;;;5042733;28;876;-70
2023/03/16 08:00:38;;;;;;;;;;;17.40;61.70;;;;;;5038001;28;864;-71
2023/03/16 08:03:04;;;;;;;;;;;17.40;61.70;;;;;;5042330;28;1276;-71
2023/03/16 08:05:31;;;;;;;;;;;17.40;61.70;;;;;;5042540;28;965;-71
2023/03/16 08:07:56;;;;;;;;;;;17.40;61.70;;;;;;5042796;28;883;-70
2023/03/16 08:10:22;;;;;;;;;;;17.40;61.70;;;;;;5044492;28;816;-70
2023/03/16 08:12:48;;;;;;;;;;;17.40;61.70;;;;;;5037312;28;1285;-70
2023/03/16 08:15:14;;;;;;;;;;;17.40;61.80;;;;;;5041154;28;1914;-69
2023/03/16 08:17:42;;;;;;;;;;;17.40;61.80;;;;;;5037560;28;824;-69
2023/03/16 08:20:11;;;;;;;;;;;17.40;61.80;;;;;;5039456;28;884;-70
2023/03/16 08:22:36;;;;;;;;;;;17.40;61.80;;;;;;5025677;28;1359;-70
2023/03/16 08:25:02;;;;;;;;;;;17.40;61.80;;;;;;5040466;28;939;-70
2023/03/16 08:27:28;;;;;;;;;;;17.40;61.90;;;;;;5038823;28;860;-70
2023/03/16 08:29:53;;;;;;;;;;;17.40;61.90;;;;;;5041641;28;931;-70
2023/03/16 08:32:19;;;;;;;;;;;17.40;61.90;;;;;;5041002;28;1281;-70
2023/03/16 08:34:44;;;;;;;;;;;17.40;61.90;;;;;;5042143;28;1902;-70
2023/03/16 08:37:11;;;;;;;;;;;17.40;61.90;;;;;;5039339;28;1060;-70
2023/03/16 08:39:39;;;;;;;;;;;17.40;61.80;;;;;;5048296;28;1364;-70
2023/03/16 08:42:06;;;;;;;;;;;17.40;61.80;;;;;;5041341;28;922;-70
2023/03/16 08:44:32;;;;;;;;;;;17.40;61.70;;;;;;5038865;28;1277;-70
2023/03/16 08:46:58;;;;;;;;;;;17.40;61.70;;;;;;5043612;28;1479;-70
2023/03/16 08:49:24;;;;;;;;;;;17.40;61.70;;;;;;5043247;28;978;-72
2023/03/16 08:51:49;;;;;;;;;;;17.50;61.70;;;;;;5038404;28;816;-71
2023/03/16 08:54:15;;;;;;;;;;;17.50;61.60;;;;;;5044191;28;1965;-72
2023/03/16 08:56:42;;;;;;;;;;;17.50;61.60;;;;;;5044798;28;1277;-72
2023/03/16 08:59:07;;;;;;;;;;;17.40;61.50;;;;;;5041523;28;1387;-71
2023/03/16 09:01:33;;;;;;;;;;;17.50;61.50;;;;;;5044678;28;1423;-72
2023/03/16 09:03:59;;;;;;;;;;;17.50;61.50;;;;;;5045314;28;1336;-73
2023/03/16 09:06:25;;;;;;;;;;;17.50;61.40;;;;;;5045072;28;1363;-72
2023/03/16 09:08:50;;;;;;;;;;;17.50;61.40;;;;;;5043521;28;1271;-72
2023/03/16 09:11:17;;;;;;;;;;;17.50;61.40;;;;;;5046058;28;1545;-71
2023/03/16 09:13:43;;;;;;;;;;;17.50;61.30;;;;;;5044102;28;1579;-71
2023/03/16 09:16:09;;;;;;;;;;;17.50;61.30;;;;;;5039773;28;1541;-71
2023/03/16 09:18:35;;;;;;;;;;;17.50;61.20;;;;;;5041819;28;1363;-71
2023/03/16 09:21:01;;;;;;;;;;;17.50;61.20;;;;;;5041779;28;1505;-71
2023/03/16 09:23:28;;;;;;;;;;;17.50;61.20;;;;;;5040534;28;1394;-71
2023/03/16 09:25:56;;;;;;;;;;;17.60;61.30;;;;;;5040642;28;1356;-70
2023/03/16 09:28:22;;;;;;;;;;;17.60;61.20;;;;;;5039572;28;1419;-71
2023/03/16 09:30:49;;;;;;;;;;;17.50;61.10;;;;;;5043600;28;1178;-71
2023/03/16 09:33:14;;;;;;;;;;;17.60;61.10;;;;;;5041797;28;1651;-71
2023/03/16 09:35:40;;;;;;;;;;;17.50;61.00;;;;;;5042022;28;1867;-68
2023/03/16 09:38:06;;;;;;;;;;;17.60;61.10;;;;;;5045924;28;1386;-68
2023/03/16 09:40:32;;;;;;;;;;;17.60;61.10;;;;;;5042959;28;1270;-69
2023/03/16 09:43:17;;;;;;;;;;;17.60;61.10;;;;;;5045097;28;1397;-69
2023/03/16 09:45:47;;;;;;;;;;;17.60;61.10;;;;;;5044535;28;1393;-69
2023/03/16 09:48:13;;;;;;;;;;;17.60;61.10;;;;;;5045733;28;1242;-69
2023/03/16 09:50:39;;;;;;;;;;;17.60;61.10;;;;;;5043590;28;1432;-69
2023/03/16 09:53:08;;;;;;;;;;;17.60;61.00;;;;;;5044302;28;1382;-69
2023/03/16 09:58:38;;;;;;;;;;;17.60;61.00;;;;;;5040643;28;1289;-68
2023/03/16 10:01:23;;;;;;;;;;;17.70;61.00;;;;;;5040818;28;1274;-68
2023/03/16 10:07:15;;;;;;;;;;;17.60;61.00;;;;;;5038574;28;1130;-68
2023/03/16 10:09:42;;;;;;;;;;;17.60;60.90;;;;;;5043912;28;1363;-68
2023/03/16 10:12:07;;;;;;;;;;;17.60;61.00;;;;;;5045891;28;1030;-69
2023/03/16 10:14:41;;;;;;;;;;;17.60;60.90;;;;;;5037687;28;1906;-69
2023/03/16 10:17:12;;;;;;;;;;;17.70;61.10;;;;;;5038013;28;929;-69
2023/03/16 10:19:40;;;;;;;;;;;17.70;61.00;;;;;;5038616;28;871;-69
2023/03/16 10:22:16;;;;;;;;;;;17.70;61.10;;;;;;5043948;28;888;-69
2023/03/16 10:24:49;;;;;;;;;;;17.60;61.00;;;;;;5038091;28;951;-69
2023/03/16 10:27:17;;;;;;;;;;;17.60;61.00;;;;;;5037392;28;1093;-69
2023/03/16 10:29:42;;;;;;;;;;;17.60;61.00;;;;;;5038540;28;895;-69
2023/03/16 10:32:12;;;;;;;;;;;17.60;61.10;;;;;;5045342;28;1034;-68
2023/03/16 10:34:37;;;;;;;;;;;17.60;61.10;;;;;;5037733;28;1902;-68
2023/03/16 10:37:03;;;;;;;;;;;17.60;61.10;;;;;;5038671;28;1183;-68
2023/03/16 10:39:34;;;;;;;;;;;17.60;61.10;;;;;;5037919;28;1015;-68
2023/03/16 10:41:59;;;;;;;;;;;17.60;61.20;;;;;;5040889;28;801;-69
2023/03/16 10:44:25;;;;;;;;;;;17.60;61.10;;;;;;5041962;28;1342;-68
2023/03/16 10:46:58;;;;;;;;;;;17.60;61.20;;;;;;5046956;28;951;-68
2023/03/16 10:49:24;;;;;;;;;;;17.60;61.20;;;;;;5040052;28;927;-68
2023/03/16 10:51:51;;;;;;;;;;;17.50;61.20;;;;;;5038965;28;919;-68
2023/03/16 10:54:26;;;;;;;;;;;17.50;61.20;;;;;;5037412;28;1902;-69
2023/03/16 10:56:51;;;;;;;;;;;17.50;61.20;;;;;;5047311;28;964;-67
2023/03/16 10:59:32;;;;;;;;;;;17.50;61.30;;;;;;5041698;28;1262;-68
2023/03/16 11:01:58;;;;;;;;;;;17.50;61.30;;;;;;5039677;28;864;-67
2023/03/16 11:04:24;;;;;;;;;;;17.50;61.30;;;;;;5035611;28;1240;-68
2023/03/16 11:06:54;;;;;;;;;;;17.50;61.40;;;;;;5035223;28;866;-69
2023/03/16 11:09:21;;;;;;;;;;;17.50;61.40;;;;;;5036009;28;839;-69
2023/03/16 11:11:48;;;;;;;;;;;17.50;61.40;;;;;;5039485;28;828;-69
2023/03/16 11:14:16;;;;;;;;;;;17.50;61.50;;;;;;5036424;28;1969;-69
2023/03/16 11:16:42;;;;;;;;;;;17.50;61.50;;;;;;5036625;28;916;-68
2023/03/16 11:19:17;;;;;;;;;;;17.50;61.60;;;;;;5037689;28;909;-69
2023/03/16 11:21:53;;;;;;;;;;;17.50;61.60;;;;;;5039398;28;848;-69
2023/03/16 11:24:41;;;;;;;;;;;17.40;61.50;;;;;;5036119;28;1335;-69
2023/03/16 11:27:11;;;;;;;;;;;17.50;61.60;;;;;;5060734;28;1226;-68
2023/03/16 11:29:40;;;;;;;;;;;17.50;61.70;;;;;;5042031;28;892;-69
2023/03/16 11:32:09;;;;;;;;;;;17.40;61.70;;;;;;5039186;28;904;-69
2023/03/16 11:34:35;;;;;;;;;;;17.40;61.70;;;;;;5039335;28;1902;-69
2023/03/16 11:37:07;;;;;;;;;;;17.50;61.80;;;;;;5038726;28;934;-69
2023/03/16 11:39:32;;;;;;;;;;;17.40;61.80;;;;;;5039679;28;1260;-69
2023/03/16 11:41:58;;;;;;;;;;;17.40;61.80;;;;;;5037846;28;899;-69
2023/03/16 11:44:42;;;;;;;;;;;17.40;61.80;;;;;;5044299;28;1532;-69
2023/03/16 11:47:16;;;;;;;;;;;17.40;61.90;;;;;;5044706;28;971;-69
2023/03/16 11:50:01;;;;;;;;;;;17.40;61.90;;;;;;5037307;28;761;-68
2023/03/16 11:52:41;;;;;;;;;;;17.40;61.90;;;;;;5042579;28;1263;-69
2023/03/16 11:55:07;;;;;;;;;;;17.40;62.00;;;;;;5043163;28;1898;-69
2023/03/16 11:57:46;;;;;;;;;;;17.30;61.90;;;;;;5042946;28;827;-68
2023/03/16 12:00:31;;;;;;;;;;;17.30;62.00;;;;;;5041488;28;788;-69
2023/03/16 12:03:03;;;;;;;;;;;17.30;62.00;;;;;;5036957;28;1276;-69
2023/03/16 12:05:41;;;;;;;;;;;17.30;62.00;;;;;;5048635;28;877;-69
2023/03/16 12:08:09;;;;;;;;;;;17.30;62.00;;;;;;5049078;28;804;-68
2023/03/16 12:10:35;;;;;;;;;;;17.30;62.10;;;;;;5044486;28;824;-69
2023/03/16 12:13:19;;;;;;;;;;;17.30;62.10;;;;;;5038044;28;1260;-69
2023/03/16 12:15:46;;;;;;;;;;;17.30;62.10;;;;;;5039026;28;1909;-69
2023/03/16 12:18:20;;;;;;;;;;;17.30;62.10;;;;;;5044121;28;798;-69
2023/03/16 12:20:51;;;;;;;;;;;17.30;62.20;;;;;;5036177;28;1232;-69
2023/03/16 12:23:22;;;;;;;;;;;17.30;62.20;;;;;;5043172;28;1397;-69
2023/03/16 12:25:48;;;;;;;;;;;17.30;63.00;;;;;;5039313;28;907;-69
2023/03/16 12:28:19;;;;;;;;;;;17.30;62.30;;;;;;5040309;28;889;-69
2023/03/16 12:30:51;;;;;;;;;;;17.30;62.30;;;;;;5039872;28;915;-69
2023/03/16 12:33:19;;;;;;;;;;;17.30;62.30;;;;;;5038226;28;1336;-69
2023/03/16 12:35:50;;;;;;;;;;;17.30;62.30;;;;;;5043390;28;1906;-69
2023/03/16 12:38:35;;;;;;;;;;;17.30;62.30;;;;;;5039442;28;1020;-69
2023/03/16 12:41:01;;;;;;;;;;;17.20;62.30;;;;;;5038550;28;855;-69
2023/03/16 12:43:41;;;;;;;;;;;17.20;62.30;;;;;;5040326;28;1292;-70
2023/03/16 12:46:09;;;;;;;;;;;17.20;62.40;;;;;;5040513;28;853;-69
2023/03/16 12:48:34;;;;;;;;;;;17.20;62.40;;;;;;5038333;28;928;-69
2023/03/16 12:51:00;;;;;;;;;;;17.20;62.40;;;;;;5040763;28;971;-69
2023/03/16 12:53:26;;;;;;;;;;;17.20;62.40;;;;;;5038212;28;1260;-69
2023/03/16 12:55:51;;;;;;;;;;;17.20;62.50;;;;;;5038442;28;1965;-69
2023/03/16 12:58:17;;;;;;;;;;;17.20;62.50;;;;;;5040318;28;809;-69
2023/03/16 13:00:43;;;;;;;;;;;17.20;62.50;;;;;;5040518;28;880;-69
2023/03/16 13:03:12;;;;;;;;;;;17.20;62.50;;;;;;5041879;28;1340;-69
2023/03/16 13:05:42;;;;;;;;;;;17.20;62.50;;;;;;5040426;28;829;-69
2023/03/16 13:08:14;;;;;;;;;;;17.20;62.60;;;;;;5042187;28;806;-69
2023/03/16 13:10:40;;;;;;;;;;;17.20;62.60;;;;;;5039500;28;872;-69
2023/03/16 13:13:10;;;;;;;;;;;17.20;62.60;;;;;;5027598;28;1287;-69
2023/03/16 13:15:35;;;;;;;;;;;17.20;62.60;;;;;;5041508;28;1977;-69
2023/03/16 13:18:02;;;;;;;;;;;17.20;62.60;;;;;;5040717;28;805;-69
2023/03/16 13:20:32;;;;;;;;;;;17.20;62.70;;;;;;5038273;28;915;-69
2023/03/16 13:23:17;;;;;;;;;;;17.20;62.70;;;;;;5040188;28;1356;-69
2023/03/16 13:25:57;;;;;;;;;;;17.10;62.60;;;;;;5042936;28;1797;-69
2023/03/16 13:28:25;;;;;;;;;;;17.10;62.70;;;;;;5040025;28;1411;-69
2023/03/16 13:30:51;;;;;;;;;;;17.20;62.80;;;;;;5047289;28;1872;-69
2023/03/16 13:33:20;;;;;;;;;;;17.10;62.70;;;;;;5042090;28;1886;-69
2023/03/16 13:35:46;;;;;;;;;;;17.10;62.70;;;;;;5039859;28;1906;-69
2023/03/16 13:38:15;;;;;;;;;;;17.10;62.70;;;;;;5039495;28;1474;-70
2023/03/16 13:40:45;;;;;;;;;;;17.10;62.80;;;;;;5044052;28;1265;-69
2023/03/16 13:43:14;;;;;;;;;;;17.10;62.80;;;;;;5038700;28;1351;-69
2023/03/16 13:45:40;;;;;;;;;;;17.10;62.80;;;;;;5035898;28;900;-69
2023/03/16 13:48:05;;;;;;;;;;;17.10;62.80;;;;;;5040108;28;871;-69
2023/03/16 13:50:31;;;;;;;;;;;17.10;62.80;;;;;;5041020;28;862;-68
2023/03/16 13:52:58;;;;;;;;;;;17.10;62.80;;;;;;5041799;28;1220;-68
2023/03/16 13:55:43;;;;;;;;;;;17.10;62.80;;;;;;5038756;28;1886;-69
2023/03/16 13:58:17;;;;;;;;;;;17.10;62.80;;;;;;5039964;28;1139;-70
2023/03/16 14:00:44;;;;;;;;;;;17.10;62.80;;;;;;5041091;28;871;-69
2023/03/16 14:03:14;;;;;;;;;;;17.10;62.90;;;;;;5038667;28;1337;-69
2023/03/16 14:05:40;;;;;;;;;;;17.10;62.90;;;;;;5039083;28;1325;-69
2023/03/16 14:08:14;;;;;;;;;;;17.10;63.00;;;;;;5037329;28;789;-69
2023/03/16 14:10:39;;;;;;;;;;;17.10;62.90;;;;;;5039317;28;906;-70
2023/03/16 14:13:25;;;;;;;;;;;17.10;63.00;;;;;;5044732;28;1848;-69
2023/03/16 14:15:55;;;;;;;;;;;17.00;62.90;;;;;;5034823;28;1909;-70
2023/03/16 14:18:26;;;;;;;;;;;17.10;63.00;;;;;;5045763;28;832;-69
2023/03/16 14:20:52;;;;;;;;;;;17.00;62.90;;;;;;5038966;28;911;-70
2023/03/16 14:23:19;;;;;;;;;;;17.00;63.00;;;;;;5036004;28;1330;-69
2023/03/16 14:25:45;;;;;;;;;;;17.00;62.90;;;;;;5035667;28;836;-69
2023/03/16 14:28:12;;;;;;;;;;;17.00;63.00;;;;;;5040376;28;817;-69
2023/03/16 14:30:37;;;;;;;;;;;17.00;63.00;;;;;;5040974;28;874;-70
2023/03/16 14:33:04;;;;;;;;;;;17.10;63.10;;;;;;5041907;28;1418;-70
2023/03/16 14:35:30;;;;;;;;;;;17.00;63.00;;;;;;5038161;28;1934;-70
2023/03/16 14:37:56;;;;;;;;;;;17.00;63.00;;;;;;5044826;28;1464;-69
2023/03/16 14:40:27;;;;;;;;;;;17.10;63.10;;;;;;5038198;28;1309;-69
2023/03/16 14:42:53;;;;;;;;;;;17.00;63.10;;;;;;5040551;28;1268;-68